Search for airport 
image banner adimage banner adimage banner ad
image banner ad

KBLH - Blythe

Located in Blythe, United States

ICAO - BLH, IATA - BLH

Data provided by Airmate  

General information

Coordinates: N33°37'9" W114°43'1"
Elevation is 400 feet MSL.
Magnetic variation is 13° East
View others Airports in California

Operational data

Special qualification required
Current time UTC:
Current local time:
Weather
METAR: KBLH 150852Z AUTO 00000KT 10SM CLR 29/02 A2972 RMK AO2 SLP055 T02940022 55001
TAF: KBLH 150520Z 1506/1606 27005KT P6SM FEW200 SCT250 FM151500 34006KT P6SM FEW150 SCT250 FM152000 31005KT P6SM FEW200 FEW250 FM152300 28006KT P6SM FEW180 FEW250
View NOTAMs / SUP AIP / TFR affecting this airport [VIEW]
Communications frequencies: [VIEW]

Runways:

RWY identifierQFULength (ft)Width (ft)SurfaceLDA (ft)
0890°6543150ASPH
26270°6543150ASPH
17180°5800100ASPH
355800100ASPH

Airport contact information

Address: Blythe United States

Satellite view of KBLH